RYR25ZN LMML-LIBD
Flight info
| Callsign | RYR25ZN |
|---|---|
| Flight time | 1h 4m |
| Altitude | 36000 |
| Route | GZO P623 OLLEK DCT ARFOL DCT ROMSU DCT BUMOK |
| Aircraft | B38M/M-SDE1FGHILORVWXY/HB1 |
Departure
| Time | 2026-05-04 08:46 |
|---|---|
| Airport | Malta International Airport (LMML) |
Arrival
| Time | 2026-05-04 09:51 |
|---|---|
| Airport | Bari Karol Wojtyła International Airport (LIBD) |
| Time | Latitude | Longitude | Altitude | Speed | Heading |
|---|---|---|---|---|---|
| 2026-05-04 08:10 | 35.84857 | 14.49456 | 261 ft | 0 kts | 359° |
| 2026-05-04 08:35 | 35.84845 | 14.49456 | 261 ft | 2 kts | 359° |
| 2026-05-04 08:35 | 35.84829 | 14.49457 | 261 ft | 2 kts | 358° |
| 2026-05-04 08:35 | 35.84812 | 14.49457 | 261 ft | 2 kts | 357° |
| 2026-05-04 08:35 | 35.84796 | 14.49459 | 261 ft | 2 kts | 353° |
| 2026-05-04 08:37 | 35.84773 | 14.49469 | 261 ft | 0 kts | 317° |
| 2026-05-04 08:40 | 35.84932 | 14.49190 | 263 ft | 12 kts | 241° |
| 2026-05-04 08:40 | 35.84890 | 14.49117 | 263 ft | 2 kts | 285° |
| 2026-05-04 08:40 | 35.84910 | 14.49090 | 263 ft | 10 kts | 314° |
| 2026-05-04 08:41 | 35.84974 | 14.48977 | 264 ft | 20 kts | 290° |
| 2026-05-04 08:41 | 35.85013 | 14.48806 | 266 ft | 21 kts | 285° |
| 2026-05-04 08:41 | 35.85028 | 14.48737 | 267 ft | 1 kts | 286° |
| 2026-05-04 08:41 | 35.85035 | 14.48715 | 267 ft | 7 kts | 291° |
| 2026-05-04 08:42 | 35.84938 | 14.49062 | 264 ft | 384 kts | 311° |
| 2026-05-04 08:42 | 35.84965 | 14.49001 | 264 ft | 1 kts | 291° |
| 2026-05-04 08:42 | 35.84979 | 14.48960 | 264 ft | 13 kts | 292° |
| 2026-05-04 08:42 | 35.85014 | 14.48793 | 266 ft | 23 kts | 284° |
| 2026-05-04 08:43 | 35.85088 | 14.48586 | 268 ft | 28 kts | 303° |
| 2026-05-04 08:43 | 35.85225 | 14.48405 | 270 ft | 30 kts | 315° |
| 2026-05-04 08:43 | 35.85373 | 14.48219 | 270 ft | 31 kts | 315° |
| 2026-05-04 08:43 | 35.85540 | 14.48048 | 270 ft | 29 kts | 353° |
| 2026-05-04 08:44 | 35.85661 | 14.48064 | 268 ft | 11 kts | 77° |
| 2026-05-04 08:44 | 35.85660 | 14.48178 | 265 ft | 15 kts | 88° |
| 2026-05-04 08:46 | 35.85593 | 14.47470 | 256 ft | 120 kts | 234° |
| 2026-05-04 08:46 | 35.84996 | 14.46427 | 460 ft | 167 kts | 236° |
| 2026-05-04 08:46 | 35.84322 | 14.45142 | 1154 ft | 188 kts | 232° |
| 2026-05-04 08:46 | 35.83516 | 14.43784 | 2073 ft | 201 kts | 233° |
| 2026-05-04 08:47 | 35.82661 | 14.42303 | 2865 ft | 227 kts | 234° |
| 2026-05-04 08:47 | 35.81704 | 14.40687 | 3700 ft | 241 kts | 234° |
| 2026-05-04 08:47 | 35.80701 | 14.38927 | 4483 ft | 259 kts | 238° |
| 2026-05-04 08:47 | 35.80065 | 14.36882 | 5516 ft | 260 kts | 263° |
| 2026-05-04 08:48 | 35.80233 | 14.34656 | 6517 ft | 268 kts | 290° |
| 2026-05-04 08:48 | 35.81240 | 14.32708 | 7446 ft | 272 kts | 317° |
| 2026-05-04 08:48 | 35.82710 | 14.31251 | 8530 ft | 273 kts | 319° |
| 2026-05-04 08:48 | 35.84098 | 14.29641 | 9560 ft | 276 kts | 317° |
| 2026-05-04 08:49 | 35.85514 | 14.28006 | 10485 ft | 282 kts | 317° |
| 2026-05-04 08:50 | 35.96422 | 14.20628 | 15212 ft | 329 kts | 356° |
| 2026-05-04 08:50 | 35.98718 | 14.20585 | 16075 ft | 331 kts | 356° |
| 2026-05-04 08:51 | 36.01031 | 14.20555 | 16912 ft | 334 kts | 356° |
| 2026-05-04 08:51 | 36.03354 | 14.20865 | 17726 ft | 342 kts | 13° |
| 2026-05-04 08:51 | 36.05519 | 14.22138 | 18565 ft | 351 kts | 28° |
| 2026-05-04 08:51 | 36.07592 | 14.23775 | 19202 ft | 355 kts | 27° |
| 2026-05-04 08:52 | 36.09682 | 14.25442 | 19830 ft | 360 kts | 28° |
| 2026-05-04 08:52 | 36.11784 | 14.27141 | 20467 ft | 364 kts | 28° |
| 2026-05-04 08:52 | 36.13912 | 14.28875 | 21082 ft | 368 kts | 28° |
| 2026-05-04 08:52 | 36.16062 | 14.30637 | 21666 ft | 373 kts | 28° |
| 2026-05-04 08:53 | 36.18222 | 14.32411 | 22262 ft | 377 kts | 28° |
| 2026-05-04 08:54 | 36.33971 | 14.45389 | 25986 ft | 398 kts | 28° |
| 2026-05-04 08:55 | 36.36313 | 14.47325 | 26496 ft | 399 kts | 28° |
| 2026-05-04 08:55 | 36.38590 | 14.49208 | 26975 ft | 402 kts | 27° |
| 2026-05-04 08:55 | 36.40919 | 14.51135 | 27454 ft | 404 kts | 27° |
| 2026-05-04 08:55 | 36.43266 | 14.53079 | 27929 ft | 406 kts | 27° |
| 2026-05-04 08:57 | 36.61382 | 14.61271 | 30810 ft | 404 kts | 4° |
| 2026-05-04 09:01 | 36.99908 | 14.70106 | 35885 ft | 409 kts | 2° |
| 2026-05-04 09:01 | 37.02714 | 14.70745 | 36161 ft | 411 kts | 2° |
| 2026-05-04 09:01 | 37.05535 | 14.71389 | 36241 ft | 412 kts | 3° |
| 2026-05-04 09:02 | 37.11121 | 14.72664 | 36212 ft | 408 kts | 3° |
| 2026-05-04 09:02 | 37.16711 | 14.73943 | 36200 ft | 408 kts | 3° |
| 2026-05-04 09:03 | 37.22307 | 14.75225 | 36207 ft | 409 kts | 3° |
| 2026-05-04 09:03 | 37.27898 | 14.76622 | 36202 ft | 410 kts | 4° |
| 2026-05-04 09:04 | 37.33489 | 14.78026 | 36186 ft | 409 kts | 4° |
| 2026-05-04 09:04 | 37.39074 | 14.79428 | 36185 ft | 410 kts | 4° |
| 2026-05-04 09:05 | 37.44667 | 14.80834 | 36181 ft | 410 kts | 4° |
| 2026-05-04 09:05 | 37.50221 | 14.82232 | 36185 ft | 410 kts | 4° |
| 2026-05-04 09:06 | 37.55815 | 14.83643 | 36176 ft | 410 kts | 4° |
| 2026-05-04 09:08 | 37.78176 | 14.89303 | 36185 ft | 410 kts | 4° |
| 2026-05-04 09:08 | 37.83769 | 14.90724 | 36184 ft | 410 kts | 4° |
| 2026-05-04 09:09 | 37.89354 | 14.92146 | 36176 ft | 410 kts | 5° |
| 2026-05-04 09:09 | 37.94953 | 14.93573 | 36209 ft | 411 kts | 5° |
| 2026-05-04 09:10 | 38.00571 | 14.95007 | 36180 ft | 412 kts | 5° |
| 2026-05-04 09:10 | 38.06204 | 14.96447 | 36191 ft | 413 kts | 5° |
| 2026-05-04 09:11 | 38.11811 | 14.97883 | 36188 ft | 412 kts | 5° |
| 2026-05-04 09:11 | 38.17439 | 14.99327 | 36191 ft | 413 kts | 5° |
| 2026-05-04 09:12 | 38.23079 | 15.00775 | 36184 ft | 414 kts | 5° |
| 2026-05-04 09:14 | 38.45641 | 15.06594 | 36198 ft | 416 kts | 6° |
| 2026-05-04 09:14 | 38.51315 | 15.08064 | 36198 ft | 416 kts | 6° |
| 2026-05-04 09:15 | 38.56994 | 15.09537 | 36193 ft | 416 kts | 6° |
| 2026-05-04 09:15 | 38.62659 | 15.11008 | 36201 ft | 418 kts | 6° |
| 2026-05-04 09:17 | 38.88306 | 15.17701 | 36203 ft | 421 kts | 6° |
| 2026-05-04 09:18 | 38.94043 | 15.19205 | 36204 ft | 420 kts | 6° |
| 2026-05-04 09:18 | 38.99769 | 15.20708 | 36206 ft | 420 kts | 6° |
| 2026-05-04 09:19 | 39.05506 | 15.22217 | 36209 ft | 421 kts | 6° |
| 2026-05-04 09:19 | 39.11237 | 15.23726 | 36206 ft | 422 kts | 6° |
| 2026-05-04 09:20 | 39.16987 | 15.25244 | 36208 ft | 421 kts | 6° |
| 2026-05-04 09:20 | 39.22733 | 15.26762 | 36209 ft | 421 kts | 6° |
| 2026-05-04 09:21 | 39.28491 | 15.28287 | 36210 ft | 424 kts | 6° |
| 2026-05-04 09:21 | 39.34261 | 15.29817 | 36209 ft | 425 kts | 6° |
| 2026-05-04 09:22 | 39.40057 | 15.31357 | 36209 ft | 425 kts | 6° |
| 2026-05-04 09:22 | 39.45853 | 15.32899 | 36220 ft | 425 kts | 7° |
| 2026-05-04 09:23 | 39.51603 | 15.34432 | 36018 ft | 414 kts | 7° |
| 2026-05-04 09:23 | 39.54403 | 15.35179 | 35566 ft | 410 kts | 7° |
| 2026-05-04 09:23 | 39.56241 | 15.35670 | 35235 ft | 409 kts | 7° |
| 2026-05-04 09:25 | 39.75375 | 15.40796 | 31824 ft | 391 kts | 7° |
| 2026-05-04 09:25 | 39.78030 | 15.41509 | 31379 ft | 389 kts | 7° |
| 2026-05-04 09:26 | 39.80657 | 15.42216 | 30948 ft | 386 kts | 8° |
| 2026-05-04 09:26 | 39.83283 | 15.42923 | 30509 ft | 384 kts | 8° |
| 2026-05-04 09:26 | 39.85890 | 15.43625 | 30050 ft | 382 kts | 8° |
| 2026-05-04 09:26 | 39.88484 | 15.44325 | 29577 ft | 379 kts | 8° |
| 2026-05-04 09:27 | 39.91049 | 15.45016 | 29157 ft | 375 kts | 8° |
| 2026-05-04 09:27 | 39.93599 | 15.45705 | 28752 ft | 372 kts | 8° |
| 2026-05-04 09:27 | 39.96119 | 15.46385 | 28351 ft | 368 kts | 8° |
| 2026-05-04 09:27 | 39.98586 | 15.47052 | 27960 ft | 365 kts | 8° |
| 2026-05-04 09:28 | 40.01064 | 15.47723 | 27569 ft | 362 kts | 8° |
| 2026-05-04 09:28 | 40.03520 | 15.48388 | 27186 ft | 359 kts | 7° |
| 2026-05-04 09:28 | 40.05946 | 15.49045 | 26813 ft | 356 kts | 7° |
| 2026-05-04 09:28 | 40.08368 | 15.49702 | 26435 ft | 354 kts | 7° |
| 2026-05-04 09:29 | 40.10771 | 15.50355 | 26069 ft | 352 kts | 8° |
| 2026-05-04 09:29 | 40.13164 | 15.51004 | 25694 ft | 350 kts | 8° |
| 2026-05-04 09:29 | 40.15545 | 15.51651 | 25330 ft | 349 kts | 8° |
| 2026-05-04 09:29 | 40.17912 | 15.52296 | 24959 ft | 347 kts | 8° |
| 2026-05-04 09:30 | 40.20273 | 15.52938 | 24597 ft | 346 kts | 8° |
| 2026-05-04 09:30 | 40.22624 | 15.53578 | 24232 ft | 344 kts | 8° |
| 2026-05-04 09:30 | 40.24965 | 15.54216 | 23871 ft | 342 kts | 8° |
| 2026-05-04 09:30 | 40.27291 | 15.54852 | 23453 ft | 340 kts | 8° |
| 2026-05-04 09:31 | 40.29588 | 15.55478 | 23098 ft | 337 kts | 8° |
| 2026-05-04 09:31 | 40.31880 | 15.56104 | 22723 ft | 335 kts | 8° |
| 2026-05-04 09:31 | 40.34150 | 15.56725 | 22373 ft | 332 kts | 9° |
| 2026-05-04 09:31 | 40.36406 | 15.57342 | 22028 ft | 329 kts | 9° |
| 2026-05-04 09:32 | 40.38638 | 15.57953 | 21691 ft | 326 kts | 9° |
| 2026-05-04 09:32 | 40.40850 | 15.58559 | 21360 ft | 324 kts | 9° |
| 2026-05-04 09:34 | 40.55906 | 15.62691 | 19063 ft | 311 kts | 10° |
| 2026-05-04 09:34 | 40.58016 | 15.63272 | 18734 ft | 309 kts | 10° |
| 2026-05-04 09:34 | 40.60118 | 15.63851 | 18411 ft | 308 kts | 10° |
| 2026-05-04 09:34 | 40.62211 | 15.64427 | 18057 ft | 306 kts | 11° |
| 2026-05-04 09:35 | 40.64291 | 15.65001 | 17715 ft | 304 kts | 11° |
| 2026-05-04 09:35 | 40.66355 | 15.65570 | 17411 ft | 301 kts | 11° |
| 2026-05-04 09:35 | 40.68396 | 15.66138 | 17086 ft | 299 kts | 12° |
| 2026-05-04 09:35 | 40.70309 | 15.67216 | 16679 ft | 302 kts | 35° |
| 2026-05-04 09:37 | 40.76596 | 15.84244 | 14531 ft | 293 kts | 66° |
| 2026-05-04 09:37 | 40.77345 | 15.86743 | 14236 ft | 292 kts | 66° |
| 2026-05-04 09:38 | 40.78092 | 15.89239 | 13923 ft | 292 kts | 66° |
| 2026-05-04 09:38 | 40.78836 | 15.91731 | 13563 ft | 292 kts | 67° |
| 2026-05-04 09:38 | 40.79574 | 15.94206 | 13244 ft | 291 kts | 66° |
| 2026-05-04 09:38 | 40.80311 | 15.96681 | 12928 ft | 289 kts | 66° |
| 2026-05-04 09:39 | 40.81042 | 15.99139 | 12618 ft | 287 kts | 66° |
| 2026-05-04 09:39 | 40.81766 | 16.01574 | 12409 ft | 281 kts | 66° |
| 2026-05-04 09:39 | 40.82469 | 16.03943 | 12277 ft | 273 kts | 67° |
| 2026-05-04 09:39 | 40.83140 | 16.06268 | 12020 ft | 270 kts | 67° |
| 2026-05-04 09:40 | 40.83808 | 16.08580 | 11724 ft | 269 kts | 67° |
| 2026-05-04 09:40 | 40.84468 | 16.10868 | 11482 ft | 265 kts | 67° |
| 2026-05-04 09:40 | 40.85117 | 16.13116 | 11346 ft | 258 kts | 68° |
| 2026-05-04 09:40 | 40.85745 | 16.15295 | 11240 ft | 251 kts | 67° |
| 2026-05-04 09:41 | 40.86497 | 16.17335 | 11053 ft | 247 kts | 49° |
| 2026-05-04 09:42 | 40.97483 | 16.19173 | 8382 ft | 257 kts | 58° |
| 2026-05-04 09:43 | 40.98188 | 16.21363 | 8146 ft | 254 kts | 68° |
| 2026-05-04 09:43 | 40.98819 | 16.23528 | 7892 ft | 251 kts | 68° |
| 2026-05-04 09:43 | 40.99448 | 16.25686 | 7592 ft | 252 kts | 68° |
| 2026-05-04 09:43 | 41.00070 | 16.27827 | 7262 ft | 253 kts | 68° |
| 2026-05-04 09:44 | 41.00699 | 16.30006 | 6941 ft | 254 kts | 68° |
| 2026-05-04 09:44 | 41.01334 | 16.32189 | 6650 ft | 254 kts | 68° |
| 2026-05-04 09:44 | 41.01989 | 16.34348 | 6324 ft | 254 kts | 68° |
| 2026-05-04 09:46 | 41.06173 | 16.48935 | 4138 ft | 235 kts | 69° |
| 2026-05-04 09:46 | 41.06746 | 16.50954 | 3821 ft | 233 kts | 69° |
| 2026-05-04 09:46 | 41.07315 | 16.52967 | 3515 ft | 232 kts | 69° |
| 2026-05-04 09:47 | 41.07874 | 16.54939 | 3218 ft | 226 kts | 69° |
| 2026-05-04 09:47 | 41.08419 | 16.56869 | 2916 ft | 220 kts | 69° |
| 2026-05-04 09:49 | 41.11296 | 16.67043 | 1371 ft | 142 kts | 66° |
| 2026-05-04 09:49 | 41.11654 | 16.68309 | 1252 ft | 148 kts | 68° |
| 2026-05-04 09:49 | 41.12016 | 16.69546 | 1052 ft | 140 kts | 66° |
| 2026-05-04 09:51 | 41.13812 | 16.75921 | 147 ft | 44 kts | 70° |
| 2026-05-04 09:51 | 41.13932 | 16.76339 | 132 ft | 53 kts | 69° |
| 2026-05-04 09:51 | 41.13991 | 16.76672 | 121 ft | 16 kts | 122° |
| 2026-05-04 09:51 | 41.13961 | 16.76720 | 119 ft | 6 kts | 155° |
| 2026-05-04 09:52 | 41.13944 | 16.76718 | 122 ft | 3 kts | 198° |
| 2026-05-04 09:52 | 41.13917 | 16.76697 | 121 ft | 6 kts | 213° |
| 2026-05-04 09:52 | 41.13879 | 16.76664 | 123 ft | 4 kts | 215° |
| 2026-05-04 09:52 | 41.13857 | 16.76644 | 124 ft | 4 kts | 215° |
| 2026-05-04 09:53 | 41.13833 | 16.76620 | 124 ft | 9 kts | 221° |
| 2026-05-04 09:53 | 41.13797 | 16.76552 | 127 ft | 7 kts | 216° |
| 2026-05-04 09:53 | 41.13762 | 16.76554 | 128 ft | 10 kts | 160° |
| 2026-05-04 09:53 | 41.13686 | 16.76543 | 132 ft | 11 kts | 206° |
| 2026-05-04 09:54 | 41.13642 | 16.76483 | 136 ft | 8 kts | 248° |
| 2026-05-04 09:54 | 41.13626 | 16.76422 | 139 ft | 6 kts | 248° |
| 2026-05-04 09:54 | 41.13611 | 16.76375 | 141 ft | 4 kts | 241° |
| 2026-05-04 09:54 | 41.13604 | 16.76369 | 141 ft | 3 kts | 198° |
| 2026-05-04 09:55 | 41.13585 | 16.76377 | 142 ft | 4 kts | 149° |
| 2026-05-04 09:55 | 41.13559 | 16.76393 | 143 ft | 4 kts | 161° |
| 2026-05-04 09:55 | 41.13546 | 16.76398 | 144 ft | 0 kts | 161° |